Terminal Aerodrome Forecast
Issued by NWS Topeka, KS

Home | Current Version | Previous Version | Graphics & Text | Print | Product List | Glossary On
Versions: 1 2 3 4 5 6 7 8 9 10 11 12 13 14 15 16 17 18 19 20
000
FTUS43 KTOP 180500
TAFTOP
TAF
KTOP 180538Z 1806/1906 09005KT 1SM -SN BR OVC005
     FM180900 08006KT 4SM -SN BR OVC005
     FM181300 06004KT 3SM BR OVC005
     FM181900 06003KT 6SM BR OVC015=

USA.gov is the U.S. government's official web portal to all federal, state and local government web resources and services.